TimeEDT,TemperatureF,Dew PointF,Humidity,Sea Level PressureIn,VisibilityMPH,Wind Direction,Wind SpeedMPH,Gust SpeedMPH,PrecipitationIn,Events,Conditions,WindDirDegrees,DateUTC
12:54 AM,48.0,45.0,89,30.04,10.0,Calm,Calm,-,N/A,,Clear,0,2013-09-07 04:54:00
1:54 AM,46.0,44.1,93,30.03,10.0,Calm,Calm,-,N/A,,Clear,0,2013-09-07 05:54:00
2:54 AM,46.0,44.1,93,30.02,10.0,Calm,Calm,-,N/A,,Mostly Cloudy,0,2013-09-07 06:54:00
3:54 AM,48.0,46.0,93,30.02,10.0,Calm,Calm,-,N/A,,Overcast,0,2013-09-07 07:54:00
4:54 AM,48.0,46.9,96,30.02,10.0,Calm,Calm,-,N/A,,Scattered Clouds,0,2013-09-07 08:54:00
5:54 AM,48.0,46.0,93,30.03,10.0,Calm,Calm,-,N/A,,Mostly Cloudy,0,2013-09-07 09:54:00
6:54 AM,48.9,46.9,93,30.02,10.0,Calm,Calm,-,N/A,,Partly Cloudy,0,2013-09-07 10:54:00
7:54 AM,52.0,48.9,89,30.01,10.0,Calm,Calm,-,N/A,,Scattered Clouds,0,2013-09-07 11:54:00
8:54 AM,57.0,50.0,77,30.00,10.0,Calm,Calm,-,N/A,,Clear,0,2013-09-07 12:54:00
9:54 AM,64.0,53.1,67,29.98,10.0,Calm,Calm,-,N/A,,Clear,0,2013-09-07 13:54:00
10:54 AM,64.9,53.1,65,29.96,10.0,Calm,Calm,-,N/A,,Partly Cloudy,0,2013-09-07 14:54:00
11:54 AM,72.0,52.0,49,29.95,10.0,Calm,Calm,-,N/A,,Partly Cloudy,0,2013-09-07 15:54:00
12:54 PM,75.9,51.1,42,29.92,10.0,SW,6.9,-,N/A,,Clear,230,2013-09-07 16:54:00
1:54 PM,70.0,48.0,46,29.90,10.0,SSW,5.8,-,N/A,,Overcast,210,2013-09-07 17:54:00
2:54 PM,73.0,52.0,48,29.88,10.0,SSW,9.2,-,N/A,,Clear,200,2013-09-07 18:54:00
3:54 PM,71.1,51.1,49,29.86,10.0,SW,6.9,-,N/A,,Clear,230,2013-09-07 19:54:00
4:54 PM,70.0,51.1,51,29.86,10.0,WSW,5.8,-,N/A,,Partly Cloudy,250,2013-09-07 20:54:00
5:54 PM,66.9,48.9,52,29.86,10.0,WSW,6.9,-,N/A,,Partly Cloudy,250,2013-09-07 21:54:00
6:54 PM,66.0,46.9,50,29.86,10.0,WSW,6.9,-,N/A,,Mostly Cloudy,250,2013-09-07 22:54:00
7:54 PM,66.0,46.0,48,29.85,10.0,SW,6.9,-,N/A,,Partly Cloudy,230,2013-09-07 23:54:00
8:54 PM,64.9,48.0,54,29.85,10.0,Variable,3.5,-,N/A,,Overcast,0,2013-09-08 00:54:00
9:54 PM,62.1,53.1,72,29.84,10.0,South,3.5,-,0.00,,Overcast,190,2013-09-08 01:54:00
10:54 PM,62.1,51.1,67,29.82,10.0,SW,6.9,-,0.00,,Scattered Clouds,230,2013-09-08 02:54:00
11:54 PM,63.0,48.9,60,29.80,10.0,SW,4.6,-,N/A,,Clear,220,2013-09-08 03:54:00